Brannan Island, California
Current Conditions -  °F | °C
As of 1:58 AM on Saturday 25 Oct 2014 (Local Time) from KSUU Reporting Station
Clear Clear  
Wind Chill: 64°   Ceiling: Unl
Heat Index: 64°   Visibility: 10mi
Dew Point: 56°   Wind: 5mph
Humidity: 75%   Direction: 160°SSE
Pressure: 29.89"   Gusts: NA
Location:  38.1457°N, 121.624°W
Report Text: KSUU 250858Z AUTO 16004KT 10SM CLR 18/13 A2989 RMK AO2 SLP128 T01780133 50006 $
Loading
Personal Weather Stations






























Interactive Weather Map
Tropical Storm Tracking
New forecast layout! Learn more

10-Day Weather Forecast

Advertisements
Track Severe Weather on mobile